Terminal Aerodrome Forecast
Issued by NWS

Home | Current Version | Previous Version | Text Only | Print | Product List | Glossary On
Versions: 1 2 3 4 5 6 7 8 9 10 11 12 13
000
FTUS42 TJSJ 171138
TAFJSJ
TAF
TJSJ 171138Z 1712/1812 08011KT P6SM -RA FEW018 SCT025 BKN050
     FM171400 06017G23KT P6SM VCSH SCT030 SCT050
     FM172230 08010KT P6SM FEW030 SCT060=

USA.gov is the U.S. government's official web portal to all federal, state and local government web resources and services.